Time;durP1;ratioP1;P1;durP2;ratioP2;P2;SDS_P1;SDS_P2;PMS_P1;PMS_P2;Temp;Humidity;BMP_temperature;BMP_pressure;BME280_temperature;BME280_humidity;BME280_pressure;Samples;Min_cycle;Max_cycle;Signal;HPM_P1;HPM_P2
2023/07/30 00:01:32;;;;;;;1.02;0.80;;;25.00;54.10;;;;;;5077053;28;20101;-66
2023/07/30 00:03:58;;;;;;;0.75;0.70;;;25.00;54.10;;;;;;5077083;28;20106;-66
2023/07/30 00:06:24;;;;;;;1.08;0.80;;;25.00;54.20;;;;;;5078881;28;20025;-66
2023/07/30 00:08:50;;;;;;;0.90;0.77;;;25.00;54.10;;;;;;5076259;28;20040;-67
2023/07/30 00:11:16;;;;;;;1.00;0.90;;;24.90;54.10;;;;;;5076958;28;20768;-66
2023/07/30 00:13:42;;;;;;;0.93;0.80;;;25.00;54.20;;;;;;5060803;28;20028;-68
2023/07/30 00:16:08;;;;;;;1.10;0.80;;;25.00;54.10;;;;;;5077656;28;20399;-66
2023/07/30 00:18:33;;;;;;;0.85;0.80;;;25.00;54.20;;;;;;5079689;28;20464;-65
2023/07/30 00:20:59;;;;;;;1.30;0.75;;;24.90;54.10;;;;;;5081104;28;20077;-65
2023/07/30 00:23:25;;;;;;;1.00;0.80;;;25.00;54.20;;;;;;5080348;28;20032;-64
2023/07/30 00:25:50;;;;;;;1.00;0.80;;;25.00;54.20;;;;;;5082119;28;20106;-65
2023/07/30 00:28:16;;;;;;;0.93;0.85;;;24.90;54.10;;;;;;5083725;28;20061;-67
2023/07/30 00:30:42;;;;;;;0.82;0.77;;;24.90;54.10;;;;;;5081960;28;20371;-67
2023/07/30 00:33:07;;;;;;;0.80;0.73;;;24.90;54.10;;;;;;5081633;28;20074;-64
2023/07/30 00:35:33;;;;;;;1.05;0.80;;;25.00;54.20;;;;;;5081308;28;20051;-66
2023/07/30 00:37:58;;;;;;;0.90;0.80;;;24.90;54.10;;;;;;5081779;28;20021;-72
2023/07/30 00:40:24;;;;;;;1.02;0.80;;;24.90;54.10;;;;;;5081475;28;20020;-71
2023/07/30 00:42:50;;;;;;;0.90;0.80;;;24.90;54.10;;;;;;5080339;28;20028;-71
2023/07/30 00:45:15;;;;;;;1.02;0.77;;;24.90;54.10;;;;;;5080926;28;20120;-71
2023/07/30 00:47:42;;;;;;;1.17;0.90;;;24.90;54.20;;;;;;5081218;28;20029;-71
2023/07/30 00:50:08;;;;;;;1.02;0.85;;;24.90;54.20;;;;;;5080541;28;20055;-76
2023/07/30 00:52:34;;;;;;;0.88;0.77;;;24.90;54.10;;;;;;5065426;28;20465;-74
2023/07/30 00:55:02;;;;;;;1.00;0.80;;;24.90;54.10;;;;;;5080244;28;20534;-74
2023/07/30 00:57:29;;;;;;;0.80;0.80;;;24.90;54.10;;;;;;5080345;28;20468;-74
2023/07/30 00:59:56;;;;;;;1.02;0.77;;;24.90;54.20;;;;;;5079942;28;20031;-73
2023/07/30 01:02:21;;;;;;;1.10;0.90;;;24.90;54.10;;;;;;5082355;28;20387;-73
2023/07/30 01:04:48;;;;;;;0.73;0.70;;;24.90;54.20;;;;;;5081512;28;20032;-72
2023/07/30 01:07:13;;;;;;;1.27;0.90;;;24.90;54.10;;;;;;5081663;28;20033;-67
2023/07/30 01:09:39;;;;;;;0.85;0.70;;;24.90;54.10;;;;;;5080830;28;20028;-67
2023/07/30 01:12:06;;;;;;;1.13;0.80;;;24.90;54.20;;;;;;5081489;28;20032;-67
2023/07/30 01:14:33;;;;;;;0.90;0.80;;;24.90;54.20;;;;;;5080338;28;20024;-68
2023/07/30 01:16:59;;;;;;;0.85;0.80;;;24.90;54.10;;;;;;5081521;28;20025;-68
2023/07/30 01:19:24;;;;;;;0.73;0.70;;;24.90;54.10;;;;;;5080684;28;20021;-68
2023/07/30 01:21:50;;;;;;;1.25;0.90;;;24.90;54.20;;;;;;5081421;28;20501;-68
2023/07/30 01:24:16;;;;;;;0.77;0.75;;;24.90;54.10;;;;;;5080056;28;20541;-66
2023/07/30 01:26:48;;;;;;;1.13;0.80;;;24.90;54.10;;;;;;5080465;28;20104;-65
2023/07/30 01:29:21;;;;;;;1.13;0.80;;;24.90;54.10;;;;;;5079564;28;20115;-67
2023/07/30 01:31:59;;;;;;;1.00;0.80;;;24.80;54.50;;;;;;5080733;28;20136;-66
2023/07/30 01:34:27;;;;;;;1.10;0.77;;;24.90;54.10;;;;;;5079813;28;20031;-66
2023/07/30 01:36:55;;;;;;;1.05;0.90;;;24.80;54.10;;;;;;5080865;28;20081;-68
2023/07/30 01:39:22;;;;;;;1.08;0.93;;;24.80;54.10;;;;;;5081355;28;20511;-67
2023/07/30 01:41:47;;;;;;;0.80;0.70;;;24.80;54.10;;;;;;5080895;28;20096;-66
2023/07/30 01:44:13;;;;;;;1.00;0.80;;;24.80;54.10;;;;;;5080727;28;20534;-67
2023/07/30 01:46:38;;;;;;;0.77;0.77;;;24.80;54.10;;;;;;5080898;28;20039;-65
2023/07/30 01:49:04;;;;;;;1.30;0.70;;;24.80;54.10;;;;;;5082975;28;20472;-67
2023/07/30 01:51:30;;;;;;;1.17;0.90;;;24.80;54.10;;;;;;5078864;28;20108;-68
2023/07/30 01:53:55;;;;;;;0.88;0.80;;;24.90;54.10;;;;;;5071909;28;20040;-66
2023/07/30 01:56:21;;;;;;;0.93;0.75;;;24.80;54.10;;;;;;5079043;28;20025;-65
2023/07/30 01:58:46;;;;;;;0.90;0.80;;;24.80;54.10;;;;;;5081533;28;20422;-67
2023/07/30 02:01:12;;;;;;;1.30;0.80;;;24.80;54.10;;;;;;5078226;28;20021;-66
2023/07/30 02:03:37;;;;;;;0.70;0.70;;;24.80;54.10;;;;;;5079535;28;20373;-66
2023/07/30 02:06:03;;;;;;;1.10;0.90;;;24.80;54.10;;;;;;5079584;28;20036;-67
2023/07/30 02:08:29;;;;;;;1.10;0.80;;;24.80;54.10;;;;;;5063685;28;20024;-65
2023/07/30 02:10:58;;;;;;;1.40;0.95;;;24.80;54.10;;;;;;5065904;28;20071;-64
2023/07/30 02:13:25;;;;;;;0.98;0.88;;;24.80;54.10;;;;;;5078584;28;20545;-65
2023/07/30 02:15:50;;;;;;;0.90;0.80;;;24.80;54.10;;;;;;5067780;28;20402;-65
2023/07/30 02:18:16;;;;;;;1.05;0.77;;;24.80;54.10;;;;;;5080942;28;20032;-67
2023/07/30 02:20:42;;;;;;;0.85;0.80;;;24.80;54.10;;;;;;5080272;28;20559;-66
2023/07/30 02:23:08;;;;;;;0.95;0.80;;;24.80;54.10;;;;;;5081704;28;20111;-66
2023/07/30 02:25:34;;;;;;;0.98;0.80;;;24.80;54.10;;;;;;5079616;28;20027;-67
2023/07/30 02:28:03;;;;;;;0.70;0.70;;;24.80;54.10;;;;;;5080586;28;20024;-68
2023/07/30 02:30:28;;;;;;;0.85;0.80;;;24.80;54.10;;;;;;5076761;28;20033;-67
2023/07/30 02:32:54;;;;;;;1.02;0.90;;;24.80;54.10;;;;;;5078436;28;20449;-67
2023/07/30 02:35:23;;;;;;;0.80;0.73;;;24.80;54.10;;;;;;5078525;28;20071;-67
2023/07/30 02:37:48;;;;;;;1.17;0.88;;;24.80;54.10;;;;;;5079132;28;20043;-67
2023/07/30 02:40:14;;;;;;;1.00;0.90;;;24.80;54.10;;;;;;5078546;28;20510;-68
2023/07/30 02:42:39;;;;;;;0.82;0.70;;;24.80;54.10;;;;;;5078861;28;20052;-67
2023/07/30 02:45:05;;;;;;;1.10;0.90;;;24.80;54.00;;;;;;5080170;28;20029;-67
2023/07/30 02:47:31;;;;;;;0.75;0.75;;;24.80;54.00;;;;;;5078954;28;20040;-67
2023/07/30 02:49:56;;;;;;;1.02;0.80;;;24.80;54.10;;;;;;5070144;28;20099;-67
2023/07/30 02:52:22;;;;;;;0.95;0.80;;;24.80;54.10;;;;;;5080492;28;20391;-67
2023/07/30 02:54:48;;;;;;;1.25;0.90;;;24.80;54.10;;;;;;5079335;28;20118;-67
2023/07/30 02:57:13;;;;;;;1.10;0.82;;;24.80;54.10;;;;;;5077781;28;20035;-66
2023/07/30 02:59:40;;;;;;;0.80;0.77;;;24.80;54.10;;;;;;5079413;28;20030;-67
2023/07/30 03:02:06;;;;;;;0.98;0.70;;;24.80;54.00;;;;;;5064797;28;20020;-68
2023/07/30 03:04:32;;;;;;;0.90;0.80;;;24.70;54.00;;;;;;5079284;28;20464;-66
2023/07/30 03:06:58;;;;;;;1.33;0.77;;;24.70;54.00;;;;;;5077829;28;20345;-67
2023/07/30 03:09:23;;;;;;;0.77;0.70;;;24.80;54.10;;;;;;5080288;28;20029;-68
2023/07/30 03:11:50;;;;;;;0.70;0.70;;;24.80;54.10;;;;;;5064785;28;20501;-67
2023/07/30 03:14:16;;;;;;;1.42;0.90;;;24.80;54.10;;;;;;5078754;28;21024;-68
2023/07/30 03:16:41;;;;;;;0.93;0.73;;;24.70;54.10;;;;;;5075845;28;20115;-68
2023/07/30 03:19:07;;;;;;;1.15;0.85;;;24.80;54.10;;;;;;5060314;28;20028;-68
2023/07/30 03:21:33;;;;;;;0.65;0.65;;;24.80;54.60;;;;;;5080205;28;20040;-68
2023/07/30 03:23:58;;;;;;;1.00;0.80;;;24.70;54.10;;;;;;5079622;28;20035;-66
2023/07/30 03:26:24;;;;;;;1.00;0.90;;;24.70;54.00;;;;;;5078048;28;20039;-70
2023/07/30 03:28:49;;;;;;;0.70;0.70;;;24.70;54.00;;;;;;5078268;28;20036;-70
2023/07/30 03:31:15;;;;;;;0.70;0.70;;;24.70;54.00;;;;;;5079085;28;20059;-72
2023/07/30 03:33:43;;;;;;;0.85;0.80;;;24.70;54.00;;;;;;5079127;28;20035;-69
2023/07/30 03:36:10;;;;;;;0.88;0.80;;;24.70;54.00;;;;;;5077908;28;20479;-71
2023/07/30 03:38:36;;;;;;;1.10;0.90;;;24.70;54.10;;;;;;5078130;28;20495;-70
2023/07/30 03:41:02;;;;;;;0.90;0.80;;;24.70;54.00;;;;;;5066593;28;20020;-71
2023/07/30 03:43:27;;;;;;;0.88;0.80;;;24.70;54.00;;;;;;5078814;28;20475;-70
2023/07/30 03:45:53;;;;;;;0.75;0.75;;;24.70;54.00;;;;;;5075550;28;20036;-71
2023/07/30 03:48:18;;;;;;;0.85;0.80;;;24.70;54.00;;;;;;5078584;28;20035;-70
2023/07/30 03:50:44;;;;;;;0.90;0.90;;;24.70;54.00;;;;;;5079251;28;20031;-71
2023/07/30 03:53:10;;;;;;;1.05;0.80;;;24.70;54.00;;;;;;5078346;28;20414;-72
2023/07/30 03:55:36;;;;;;;1.10;0.85;;;24.70;54.00;;;;;;5077909;28;20031;-71
2023/07/30 03:58:01;;;;;;;0.60;0.60;;;24.70;54.00;;;;;;5079023;28;20476;-70
2023/07/30 04:00:28;;;;;;;0.93;0.80;;;24.70;54.00;;;;;;5078863;28;20069;-70
2023/07/30 04:02:54;;;;;;;0.90;0.70;;;24.60;54.00;;;;;;5061374;28;20476;-71
2023/07/30 04:05:19;;;;;;;1.27;0.80;;;24.70;54.10;;;;;;5079038;28;20085;-71
2023/07/30 04:07:45;;;;;;;0.85;0.80;;;24.70;54.00;;;;;;5064366;28;20035;-66
2023/07/30 04:10:11;;;;;;;1.00;0.80;;;24.70;54.00;;;;;;5078050;28;20036;-65
2023/07/30 04:12:36;;;;;;;0.73;0.70;;;24.70;54.00;;;;;;5078478;28;20459;-66
2023/07/30 04:15:02;;;;;;;1.23;0.90;;;24.60;54.00;;;;;;5064751;28;20035;-64
2023/07/30 04:17:27;;;;;;;0.73;0.70;;;24.70;54.10;;;;;;5077040;28;20107;-67
2023/07/30 04:19:53;;;;;;;0.70;0.70;;;24.70;54.10;;;;;;5078326;28;20046;-67
2023/07/30 04:22:18;;;;;;;0.85;0.75;;;24.60;54.00;;;;;;5078287;28;20024;-66
2023/07/30 04:24:44;;;;;;;0.73;0.73;;;24.60;54.00;;;;;;5077581;28;20024;-66
2023/07/30 04:27:10;;;;;;;0.90;0.80;;;24.70;54.00;;;;;;5078802;28;20028;-72
2023/07/30 04:29:35;;;;;;;0.75;0.75;;;24.70;54.10;;;;;;5077217;28;20035;-71
2023/07/30 04:32:01;;;;;;;0.60;0.60;;;24.70;54.00;;;;;;5060925;28;20024;-71
2023/07/30 04:34:26;;;;;;;0.65;0.65;;;24.60;54.00;;;;;;5077919;28;20028;-72
2023/07/30 04:36:52;;;;;;;0.80;0.75;;;24.60;54.00;;;;;;5079127;28;20447;-67
2023/07/30 04:39:18;;;;;;;1.80;0.70;;;24.60;54.00;;;;;;5077316;28;20016;-67
2023/07/30 04:41:43;;;;;;;0.85;0.80;;;24.60;54.00;;;;;;5065428;28;20063;-67
2023/07/30 04:44:09;;;;;;;0.93;0.80;;;24.60;54.00;;;;;;5077534;28;20056;-67
2023/07/30 04:46:34;;;;;;;0.77;0.70;;;24.60;54.00;;;;;;5074667;28;20032;-68
2023/07/30 04:49:03;;;;;;;1.20;0.70;;;24.60;54.00;;;;;;5077076;28;20040;-68
2023/07/30 04:51:29;;;;;;;0.80;0.80;;;24.60;54.00;;;;;;5078006;28;20459;-68
2023/07/30 04:53:54;;;;;;;0.85;0.80;;;24.60;54.00;;;;;;5077194;28;20114;-67
2023/07/30 04:56:20;;;;;;;0.90;0.80;;;24.60;54.00;;;;;;5077852;28;20116;-68
2023/07/30 04:58:46;;;;;;;0.70;0.70;;;24.60;54.00;;;;;;5078000;28;20460;-67
2023/07/30 05:01:11;;;;;;;1.02;0.80;;;24.60;54.00;;;;;;5076794;28;20025;-69
2023/07/30 05:03:37;;;;;;;0.80;0.73;;;24.60;54.50;;;;;;5077754;28;20025;-68
2023/07/30 05:06:02;;;;;;;1.10;0.80;;;24.60;54.30;;;;;;5082578;28;20032;-67
2023/07/30 05:08:28;;;;;;;0.70;0.70;;;24.50;53.90;;;;;;5081572;28;20032;-68
2023/07/30 05:10:54;;;;;;;0.65;0.63;;;24.60;54.00;;;;;;5081600;28;20372;-67
2023/07/30 05:13:19;;;;;;;0.60;0.60;;;24.60;54.00;;;;;;5081753;28;20187;-67
2023/07/30 05:15:45;;;;;;;0.73;0.70;;;24.60;54.00;;;;;;5066882;28;20035;-68
2023/07/30 05:18:10;;;;;;;0.80;0.73;;;24.50;53.90;;;;;;5080834;28;20032;-65
2023/07/30 05:20:36;;;;;;;0.68;0.65;;;24.50;53.90;;;;;;5080913;28;20016;-65
2023/07/30 05:23:02;;;;;;;0.93;0.80;;;24.50;53.90;;;;;;5082383;28;20022;-66
2023/07/30 05:25:28;;;;;;;0.80;0.80;;;24.50;53.90;;;;;;5078918;28;20024;-68
2023/07/30 05:27:53;;;;;;;1.05;0.80;;;24.60;54.00;;;;;;5080419;28;20028;-65
2023/07/30 05:30:19;;;;;;;0.70;0.70;;;24.50;53.90;;;;;;5082143;28;20062;-64
2023/07/30 05:32:44;;;;;;;1.05;0.70;;;24.50;53.90;;;;;;5080885;28;20108;-65
2023/07/30 05:35:10;;;;;;;0.75;0.70;;;24.50;54.00;;;;;;5080368;28;20827;-65
2023/07/30 05:37:36;;;;;;;0.90;0.80;;;24.60;54.00;;;;;;5079596;28;20395;-66
2023/07/30 05:40:03;;;;;;;0.50;0.50;;;24.50;53.90;;;;;;5071095;28;20025;-64
2023/07/30 05:42:28;;;;;;;0.70;0.70;;;24.50;53.80;;;;;;5080978;28;20024;-65
2023/07/30 05:44:54;;;;;;;0.70;0.70;;;24.50;53.90;;;;;;5080851;28;20475;-65
2023/07/30 05:47:19;;;;;;;0.75;0.70;;;24.50;53.80;;;;;;5080283;28;20047;-70
2023/07/30 05:49:45;;;;;;;0.70;0.70;;;24.50;53.80;;;;;;5083538;28;20043;-70
2023/07/30 05:52:10;;;;;;;0.70;0.70;;;24.50;53.80;;;;;;5080043;28;20031;-70
2023/07/30 05:54:36;;;;;;;1.08;0.80;;;24.50;53.80;;;;;;5080903;28;20092;-70
2023/07/30 05:57:01;;;;;;;0.80;0.73;;;24.50;53.80;;;;;;5079752;28;20329;-69
2023/07/30 05:59:27;;;;;;;0.70;0.70;;;24.50;53.80;;;;;;5079795;28;20028;-69
2023/07/30 06:01:53;;;;;;;0.82;0.80;;;24.50;53.80;;;;;;5078818;28;20028;-69
2023/07/30 06:04:18;;;;;;;0.93;0.80;;;24.50;53.80;;;;;;5062678;28;20445;-70
2023/07/30 06:06:44;;;;;;;0.70;0.70;;;24.50;53.80;;;;;;5079682;28;20047;-70
2023/07/30 06:09:11;;;;;;;0.77;0.70;;;24.50;53.80;;;;;;5080211;28;20028;-70
2023/07/30 06:11:36;;;;;;;0.80;0.80;;;24.50;54.00;;;;;;5063502;28;20502;-70
2023/07/30 06:14:02;;;;;;;0.70;0.70;;;24.50;53.80;;;;;;5080258;28;20036;-70
2023/07/30 06:16:28;;;;;;;0.90;0.77;;;24.50;53.80;;;;;;5078336;28;20529;-70
2023/07/30 06:18:53;;;;;;;0.93;0.70;;;24.50;53.80;;;;;;5078374;28;20032;-70
2023/07/30 06:21:19;;;;;;;1.20;0.80;;;24.50;53.80;;;;;;5062665;28;20517;-70
2023/07/30 06:23:44;;;;;;;1.02;0.88;;;24.50;53.80;;;;;;5078176;28;20024;-70
2023/07/30 06:26:10;;;;;;;0.90;0.80;;;24.50;53.90;;;;;;5062708;28;20379;-71
2023/07/30 06:28:35;;;;;;;0.80;0.70;;;24.50;53.80;;;;;;5080744;28;20024;-68
2023/07/30 06:31:02;;;;;;;1.00;0.85;;;24.50;53.90;;;;;;5078603;28;20028;-70
2023/07/30 06:33:27;;;;;;;1.13;0.90;;;24.50;53.90;;;;;;5079235;28;20055;-69
2023/07/30 06:35:53;;;;;;;0.85;0.75;;;24.50;53.90;;;;;;5060484;28;20020;-70
2023/07/30 06:38:19;;;;;;;1.08;0.80;;;24.50;53.90;;;;;;5062652;28;20028;-69
2023/07/30 06:40:44;;;;;;;1.30;1.00;;;24.50;53.90;;;;;;5077468;28;20032;-70
2023/07/30 06:43:10;;;;;;;1.05;0.90;;;24.50;53.90;;;;;;5079449;28;20036;-69
2023/07/30 06:45:35;;;;;;;1.02;0.77;;;24.50;54.50;;;;;;5081944;28;20116;-69
2023/07/30 06:48:01;;;;;;;1.40;0.90;;;24.50;54.00;;;;;;5080413;28;20028;-66
2023/07/30 06:50:27;;;;;;;1.25;1.00;;;24.50;54.20;;;;;;5078962;28;20487;-65
2023/07/30 06:52:52;;;;;;;2.17;0.90;;;24.50;54.40;;;;;;5080546;28;20032;-67
2023/07/30 06:55:18;;;;;;;1.20;1.00;;;24.50;54.70;;;;;;5078633;28;20110;-66
2023/07/30 06:57:43;;;;;;;1.60;1.10;;;24.50;54.90;;;;;;5080160;28;20036;-68
2023/07/30 07:00:09;;;;;;;1.15;1.00;;;24.50;55.10;;;;;;5078937;28;20036;-68
2023/07/30 07:02:36;;;;;;;1.55;1.00;;;24.50;55.30;;;;;;5060395;28;20035;-68
2023/07/30 07:05:02;;;;;;;1.67;1.20;;;24.50;56.30;;;;;;5078499;28;20024;-68
2023/07/30 07:07:27;;;;;;;1.85;1.30;;;24.50;56.70;;;;;;5080054;28;20466;-68
2023/07/30 07:09:53;;;;;;;3.33;1.58;;;24.50;57.00;;;;;;5080584;28;20102;-68
2023/07/30 07:12:18;;;;;;;1.60;1.20;;;24.50;57.30;;;;;;5077780;28;20029;-68
2023/07/30 07:14:44;;;;;;;2.15;1.40;;;24.50;57.40;;;;;;5080671;28;20039;-69
2023/07/30 07:17:10;;;;;;;1.90;1.23;;;24.50;57.40;;;;;;5078578;28;20070;-68
2023/07/30 07:19:36;;;;;;;1.95;1.30;;;24.40;57.60;;;;;;5061297;28;20101;-68
2023/07/30 07:22:04;;;;;;;1.63;1.25;;;24.40;57.60;;;;;;5080787;28;20026;-68
2023/07/30 07:24:30;;;;;;;1.95;1.38;;;24.50;58.00;;;;;;5078934;28;20038;-68
2023/07/30 07:26:56;;;;;;;1.55;1.20;;;24.40;57.90;;;;;;5080337;28;20484;-69
2023/07/30 07:29:22;;;;;;;1.70;1.30;;;24.50;58.10;;;;;;5078543;28;20082;-68
2023/07/30 07:31:48;;;;;;;2.35;1.17;;;24.40;58.10;;;;;;5076360;28;20020;-68
2023/07/30 07:34:13;;;;;;;1.83;1.40;;;24.40;58.10;;;;;;5077324;28;20063;-68
2023/07/30 07:36:39;;;;;;;1.67;1.30;;;24.40;58.10;;;;;;5077729;28;20450;-71
2023/07/30 07:39:06;;;;;;;1.70;1.38;;;24.40;58.10;;;;;;5078852;28;20471;-71
2023/07/30 07:41:32;;;;;;;2.33;1.27;;;24.40;58.20;;;;;;5078043;28;20486;-71
2023/07/30 07:43:57;;;;;;;1.75;1.15;;;24.40;58.20;;;;;;5078107;28;20017;-71
2023/07/30 07:46:23;;;;;;;1.50;1.20;;;24.40;58.50;;;;;;5078917;28;20032;-71
2023/07/30 07:48:49;;;;;;;1.80;1.20;;;24.40;57.90;;;;;;5077239;28;20515;-70
2023/07/30 07:51:14;;;;;;;1.65;1.20;;;24.40;57.80;;;;;;5079262;28;20471;-70
2023/07/30 07:53:40;;;;;;;1.77;1.20;;;24.40;57.60;;;;;;5077640;28;20056;-70
2023/07/30 07:56:06;;;;;;;1.70;1.25;;;24.40;57.40;;;;;;5078778;28;20027;-70
2023/07/30 07:58:32;;;;;;;1.50;1.10;;;24.40;57.30;;;;;;5077946;28;20013;-69
2023/07/30 08:00:58;;;;;;;1.90;1.20;;;24.40;57.20;;;;;;5077876;28;20511;-68
2023/07/30 08:03:26;;;;;;;1.77;1.20;;;24.30;57.00;;;;;;5076851;28;20463;-68
2023/07/30 08:05:52;;;;;;;1.17;1.05;;;24.30;56.80;;;;;;5078430;28;20051;-68
2023/07/30 08:08:17;;;;;;;1.80;1.30;;;24.40;56.80;;;;;;5077364;28;20068;-65
2023/07/30 08:10:45;;;;;;;1.73;1.30;;;24.40;56.70;;;;;;5078743;28;20028;-66
2023/07/30 08:13:11;;;;;;;1.58;1.10;;;24.40;56.70;;;;;;5077346;28;20028;-67
2023/07/30 08:15:36;;;;;;;1.83;1.30;;;24.40;56.50;;;;;;5078121;28;20479;-67
2023/07/30 08:18:02;;;;;;;1.92;1.25;;;24.40;56.50;;;;;;5076659;28;20048;-67
2023/07/30 08:20:27;;;;;;;1.67;1.25;;;24.40;56.40;;;;;;5078320;28;20448;-67
2023/07/30 08:22:53;;;;;;;1.10;1.00;;;24.40;56.30;;;;;;5062528;28;20047;-67
2023/07/30 08:25:19;;;;;;;1.10;0.98;;;24.40;56.30;;;;;;5078074;28;20090;-66
2023/07/30 08:27:44;;;;;;;1.85;1.17;;;24.40;56.20;;;;;;5078532;28;20032;-66
2023/07/30 08:30:10;;;;;;;1.27;1.10;;;24.40;56.10;;;;;;5078363;28;20222;-66
2023/07/30 08:32:36;;;;;;;1.83;1.02;;;24.40;56.10;;;;;;5078499;28;20076;-66
2023/07/30 08:35:02;;;;;;;1.35;1.10;;;24.40;56.00;;;;;;5077041;28;20044;-66
2023/07/30 08:37:28;;;;;;;1.13;0.90;;;24.30;55.90;;;;;;5078793;28;20446;-65
2023/07/30 08:39:53;;;;;;;1.23;0.93;;;24.40;55.90;;;;;;5079607;28;20024;-67
2023/07/30 08:42:19;;;;;;;1.25;1.00;;;24.40;55.80;;;;;;5080798;28;20028;-66
2023/07/30 08:44:45;;;;;;;1.55;1.15;;;24.40;55.80;;;;;;5082063;28;20020;-66
2023/07/30 08:47:11;;;;;;;1.55;1.20;;;24.40;55.70;;;;;;5082885;28;20024;-65
2023/07/30 08:49:37;;;;;;;1.42;1.20;;;24.30;55.70;;;;;;5081272;28;20070;-66
2023/07/30 08:52:03;;;;;;;1.85;1.17;;;24.40;55.60;;;;;;5081118;28;20060;-65
2023/07/30 08:54:31;;;;;;;1.85;1.00;;;24.40;55.60;;;;;;5080421;28;20103;-66
2023/07/30 08:56:58;;;;;;;1.50;1.10;;;24.40;55.60;;;;;;5081746;28;20024;-64
2023/07/30 08:59:27;;;;;;;1.23;1.08;;;24.30;55.50;;;;;;5082761;28;20020;-65
2023/07/30 09:01:53;;;;;;;1.42;1.08;;;24.30;55.40;;;;;;5083549;28;20045;-65
2023/07/30 09:04:21;;;;;;;1.55;1.10;;;24.40;55.40;;;;;;5080132;28;20479;-67
2023/07/30 09:06:50;;;;;;;1.35;1.00;;;24.40;55.90;;;;;;5083739;28;20085;-69
2023/07/30 09:09:16;;;;;;;1.02;0.90;;;24.40;55.40;;;;;;5081405;28;20591;-69
2023/07/30 09:11:42;;;;;;;1.58;1.13;;;24.40;55.30;;;;;;5082443;28;20039;-68
2023/07/30 09:14:09;;;;;;;1.70;1.08;;;24.30;55.20;;;;;;5080552;28;20024;-69
2023/07/30 09:16:34;;;;;;;1.10;0.90;;;24.40;55.20;;;;;;5068339;28;20108;-66
2023/07/30 09:19:00;;;;;;;1.27;0.98;;;24.40;55.30;;;;;;5078265;28;20482;-69
2023/07/30 09:21:33;;;;;;;1.23;1.00;;;24.40;55.20;;;;;;5081120;28;20086;-69
2023/07/30 09:24:05;;;;;;;1.00;0.90;;;24.40;55.20;;;;;;5080003;28;20078;-69
2023/07/30 09:26:41;;;;;;;1.20;0.90;;;24.40;55.20;;;;;;5081850;28;20100;-69
2023/07/30 09:29:10;;;;;;;1.42;1.00;;;24.40;55.10;;;;;;5081424;28;20052;-69
2023/07/30 09:31:56;;;;;;;1.60;1.10;;;24.40;55.10;;;;;;5079326;28;20036;-67
2023/07/30 09:34:24;;;;;;;1.63;1.00;;;24.30;55.00;;;;;;5079815;28;20119;-68
2023/07/30 09:36:54;;;;;;;1.42;1.00;;;24.40;55.10;;;;;;5082486;28;20028;-68
2023/07/30 09:39:24;;;;;;;1.30;1.08;;;24.40;55.00;;;;;;5079708;28;20016;-68
2023/07/30 09:41:51;;;;;;;1.17;0.95;;;24.40;55.00;;;;;;5080128;28;20016;-68
2023/07/30 09:44:21;;;;;;;2.22;1.20;;;24.40;55.00;;;;;;5078513;28;20553;-67
2023/07/30 09:46:50;;;;;;;1.10;0.90;;;24.30;55.00;;;;;;5081098;28;20035;-67
2023/07/30 09:49:17;;;;;;;1.23;0.90;;;24.40;55.00;;;;;;5062388;28;20127;-67
2023/07/30 09:51:43;;;;;;;1.50;1.00;;;24.40;55.00;;;;;;5080718;28;20028;-67
2023/07/30 09:54:11;;;;;;;1.30;0.90;;;24.40;54.90;;;;;;5081782;28;20032;-67
2023/07/30 09:56:38;;;;;;;1.08;0.98;;;24.30;54.80;;;;;;5080575;28;20075;-66
2023/07/30 09:59:08;;;;;;;1.27;1.00;;;24.40;54.90;;;;;;5082105;28;20029;-70
2023/07/30 10:01:49;;;;;;;1.75;0.90;;;24.40;55.40;;;;;;5078747;28;20039;-70
2023/07/30 10:04:17;;;;;;;1.15;0.90;;;24.30;54.80;;;;;;5078696;28;20019;-69
2023/07/30 10:06:50;;;;;;;1.13;0.93;;;24.40;55.40;;;;;;5081288;28;20032;-70
2023/07/30 10:09:19;;;;;;;0.93;0.80;;;24.40;55.30;;;;;;5079262;28;20028;-70
2023/07/30 10:11:46;;;;;;;1.15;0.98;;;24.30;54.70;;;;;;5062194;28;20024;-70
2023/07/30 10:14:14;;;;;;;1.00;0.80;;;24.40;54.70;;;;;;5080418;28;20028;-69
2023/07/30 10:16:49;;;;;;;0.80;0.80;;;24.40;54.70;;;;;;5082218;28;20031;-70
2023/07/30 10:19:16;;;;;;;1.02;0.82;;;24.40;54.80;;;;;;5076785;28;20021;-70
2023/07/30 10:21:42;;;;;;;1.00;0.80;;;24.40;54.70;;;;;;5080156;28;20023;-70
2023/07/30 10:24:09;;;;;;;1.35;0.98;;;24.40;54.70;;;;;;5077752;28;20136;-70
2023/07/30 10:26:37;;;;;;;1.00;0.90;;;24.40;54.70;;;;;;5078181;28;20052;-68
2023/07/30 10:29:20;;;;;;;1.00;0.90;;;24.40;54.70;;;;;;5078250;28;20025;-68
2023/07/30 10:31:57;;;;;;;1.00;0.90;;;24.30;55.10;;;;;;5078957;28;20514;-68
2023/07/30 10:34:27;;;;;;;0.90;0.80;;;24.40;54.70;;;;;;5076231;28;20113;-68
2023/07/30 10:36:55;;;;;;;0.82;0.80;;;24.40;54.60;;;;;;5080311;28;20383;-68
2023/07/30 10:39:28;;;;;;;1.20;0.90;;;24.40;54.60;;;;;;5061836;28;20085;-69
2023/07/30 10:41:58;;;;;;;0.90;0.70;;;24.40;54.60;;;;;;5078675;28;20494;-69
2023/07/30 10:44:26;;;;;;;0.98;0.88;;;24.40;54.60;;;;;;5080272;28;20392;-68
2023/07/30 10:46:55;;;;;;;0.88;0.80;;;24.40;54.60;;;;;;5079228;28;20024;-69
2023/07/30 10:49:21;;;;;;;1.25;1.00;;;24.40;54.60;;;;;;5076111;28;20028;-69
2023/07/30 10:51:47;;;;;;;1.00;0.90;;;24.40;54.60;;;;;;5080783;28;20029;-69
2023/07/30 10:54:12;;;;;;;0.80;0.80;;;24.40;54.60;;;;;;5081042;28;20032;-69
2023/07/30 10:56:40;;;;;;;1.15;0.80;;;24.40;54.60;;;;;;5080268;28;20076;-67
2023/07/30 10:59:07;;;;;;;1.10;1.00;;;24.40;54.50;;;;;;5078640;28;20051;-69
2023/07/30 11:01:43;;;;;;;1.00;0.85;;;24.40;54.50;;;;;;5062374;28;20024;-68
2023/07/30 11:04:19;;;;;;;1.20;0.90;;;24.40;54.70;;;;;;5078365;28;20064;-69
2023/07/30 11:06:49;;;;;;;1.23;0.90;;;24.40;54.50;;;;;;5077730;28;20056;-68
2023/07/30 11:09:23;;;;;;;1.80;0.90;;;24.30;54.80;;;;;;5078887;28;20479;-68
2023/07/30 11:11:49;;;;;;;1.30;1.00;;;24.40;55.40;;;;;;5078239;28;20408;-70
2023/07/30 11:14:20;;;;;;;2.75;1.17;;;24.40;56.10;;;;;;5080692;28;20032;-70
2023/07/30 11:16:50;;;;;;;1.42;0.95;;;24.40;56.60;;;;;;5078746;28;20413;-70
2023/07/30 11:19:17;;;;;;;1.20;0.93;;;24.50;56.90;;;;;;5077712;28;20391;-70
2023/07/30 11:21:46;;;;;;;1.20;0.98;;;24.50;56.90;;;;;;5061651;28;20039;-70
2023/07/30 11:24:12;;;;;;;0.90;0.80;;;24.50;57.00;;;;;;5079829;28;20024;-70
2023/07/30 11:26:38;;;;;;;1.23;0.80;;;24.50;57.00;;;;;;5078616;28;20032;-69
2023/07/30 11:29:17;;;;;;;1.27;0.90;;;24.50;57.00;;;;;;5079730;28;20036;-70
2023/07/30 11:31:44;;;;;;;1.45;0.93;;;24.50;57.10;;;;;;5079723;28;20495;-69
2023/07/30 11:34:11;;;;;;;1.55;1.10;;;24.50;57.00;;;;;;5081139;28;20032;-69
2023/07/30 11:36:37;;;;;;;1.05;0.90;;;24.50;57.00;;;;;;5078976;28;20035;-72
2023/07/30 11:39:03;;;;;;;1.52;1.00;;;24.60;57.10;;;;;;5081390;28;20033;-71
2023/07/30 11:41:29;;;;;;;1.60;1.00;;;24.60;57.00;;;;;;5078070;28;20024;-71
2023/07/30 11:43:55;;;;;;;1.17;0.90;;;24.60;57.00;;;;;;5079587;28;20705;-71
2023/07/30 11:46:22;;;;;;;1.33;1.00;;;24.60;56.80;;;;;;5079509;28;20028;-71
2023/07/30 11:48:50;;;;;;;1.20;0.95;;;24.70;56.80;;;;;;5079890;28;20116;-71
2023/07/30 11:51:19;;;;;;;1.27;1.00;;;24.70;56.60;;;;;;5060978;28;20459;-71
2023/07/30 11:53:51;;;;;;;1.48;1.10;;;24.70;56.60;;;;;;5078443;28;20040;-71
2023/07/30 11:56:24;;;;;;;1.33;1.00;;;24.70;56.50;;;;;;5080569;28;20115;-71
2023/07/30 11:58:51;;;;;;;1.30;1.02;;;24.70;56.50;;;;;;5078399;28;20463;-71
2023/07/30 12:01:18;;;;;;;1.30;0.98;;;24.70;56.40;;;;;;5077004;28;20024;-71
2023/07/30 12:03:43;;;;;;;1.25;0.98;;;24.80;56.40;;;;;;5080386;28;20487;-71
2023/07/30 12:06:10;;;;;;;1.45;0.90;;;24.80;56.40;;;;;;5078973;28;20044;-71
2023/07/30 12:08:37;;;;;;;1.20;0.90;;;24.80;56.30;;;;;;5079319;28;20399;-71
2023/07/30 12:11:04;;;;;;;1.70;0.95;;;24.80;56.40;;;;;;5080006;28;20020;-72
2023/07/30 12:13:30;;;;;;;1.05;0.90;;;24.80;56.80;;;;;;5080497;28;20581;-71
2023/07/30 12:15:57;;;;;;;1.20;0.95;;;24.80;56.30;;;;;;5083241;28;20064;-71
2023/07/30 12:18:24;;;;;;;1.15;0.90;;;24.80;56.20;;;;;;5065656;28;20032;-68
2023/07/30 12:20:50;;;;;;;1.45;0.88;;;24.80;56.20;;;;;;5082542;28;20020;-68
2023/07/30 12:23:17;;;;;;;2.03;0.95;;;24.80;56.20;;;;;;5084424;28;20546;-68
2023/07/30 12:25:42;;;;;;;1.20;0.90;;;24.80;56.10;;;;;;5083974;28;20099;-68
2023/07/30 12:28:08;;;;;;;1.60;0.93;;;24.90;56.20;;;;;;5084778;28;20119;-68
2023/07/30 12:30:35;;;;;;;1.23;0.88;;;24.90;56.20;;;;;;5082991;28;20103;-68
2023/07/30 12:33:01;;;;;;;1.48;0.90;;;24.90;56.10;;;;;;5083665;28;20020;-68
2023/07/30 12:35:26;;;;;;;4.63;2.05;;;24.90;56.10;;;;;;5082233;28;20040;-67
2023/07/30 12:37:52;;;;;;;1.08;0.90;;;24.90;56.20;;;;;;5084227;28;20024;-67
2023/07/30 12:40:18;;;;;;;0.98;0.88;;;24.90;56.30;;;;;;5082527;28;20033;-66
2023/07/30 12:42:43;;;;;;;0.95;0.80;;;25.00;56.20;;;;;;5080906;28;20024;-66
2023/07/30 12:45:09;;;;;;;1.13;0.90;;;25.00;56.10;;;;;;5081707;28;20078;-66